Time;durP1;ratioP1;P1;durP2;ratioP2;P2;SDS_P1;SDS_P2;PMS_P1;PMS_P2;Temp;Humidity;BMP_temperature;BMP_pressure;BME280_temperature;BME280_humidity;BME280_pressure;Samples;Min_cycle;Max_cycle;Signal;HPM_P1;HPM_P2
2023/08/02 00:00:50;;;;;;;8.38;6.00;;;;;;;20.25;100.00;98365.88;5139919;28;20425;-64
2023/08/02 00:03:16;;;;;;;8.10;6.13;;;;;;;20.40;100.00;98363.38;5140165;28;20059;-65
2023/08/02 00:05:51;;;;;;;9.98;6.55;;;;;;;20.30;100.00;98354.19;5139813;28;20130;-66
2023/08/02 00:08:17;;;;;;;7.85;6.47;;;;;;;20.31;100.00;98338.25;5140059;27;20054;-62
2023/08/02 00:10:43;;;;;;;9.73;6.72;;;;;;;20.18;100.00;98330.72;5139662;28;20047;-62
2023/08/02 00:13:09;;;;;;;10.25;6.63;;;;;;;20.11;100.00;98305.16;5140145;28;20081;-62
2023/08/02 00:15:37;;;;;;;9.90;7.15;;;;;;;20.07;100.00;98285.78;5139571;28;20043;-64
2023/08/02 00:18:03;;;;;;;10.50;8.00;;;;;;;20.09;100.00;98288.91;5139598;28;20047;-65
2023/08/02 00:20:29;;;;;;;10.10;7.05;;;;;;;19.90;100.00;98284.41;5139793;28;20043;-66
2023/08/02 00:22:56;;;;;;;11.18;7.53;;;;;;;20.01;100.00;98253.44;5139549;28;20070;-65
2023/08/02 00:25:22;;;;;;;13.82;8.13;;;;;;;20.10;100.00;98257.06;5139635;28;20393;-66
2023/08/02 00:27:48;;;;;;;11.82;9.13;;;;;;;19.97;100.00;98259.91;5138501;27;20051;-65
2023/08/02 00:30:14;;;;;;;13.05;8.45;;;;;;;19.92;100.00;98252.09;5139545;28;20392;-62
2023/08/02 00:32:43;;;;;;;11.23;7.57;;;;;;;19.91;100.00;98250.56;5139428;28;20054;-62
2023/08/02 00:35:09;;;;;;;12.40;8.23;;;;;;;19.97;100.00;98243.19;5139886;28;20054;-66
2023/08/02 00:37:35;;;;;;;10.35;8.00;;;;;;;19.96;100.00;98246.44;5139222;27;20047;-62
2023/08/02 00:40:03;;;;;;;8.80;7.22;;;;;;;19.84;100.00;98244.47;5139653;28;20051;-62
2023/08/02 00:42:30;;;;;;;12.60;8.25;;;;;;;19.83;100.00;98237.38;5139461;28;20051;-62
2023/08/02 00:44:56;;;;;;;12.45;7.65;;;;;;;19.94;100.00;98235.75;5139136;28;20164;-65
2023/08/02 00:47:22;;;;;;;11.65;8.52;;;;;;;19.97;100.00;98239.66;5139447;28;20059;-66
2023/08/02 00:49:48;;;;;;;10.80;7.93;;;;;;;19.86;100.00;98234.47;5139200;28;20371;-65
2023/08/02 00:52:14;;;;;;;16.25;7.63;;;;;;;19.64;100.00;98228.06;5139434;28;20468;-65
2023/08/02 00:54:41;;;;;;;12.65;6.82;;;;;;;19.46;100.00;98225.84;5139012;28;20047;-64
2023/08/02 00:57:09;;;;;;;9.75;6.97;;;;;;;19.54;100.00;98206.94;5139086;28;20058;-67
2023/08/02 00:59:36;;;;;;;9.82;7.60;;;;;;;19.57;100.00;98200.47;5139010;28;20066;-67
2023/08/02 01:02:03;;;;;;;9.18;6.45;;;;;;;19.52;100.00;98212.94;5139356;28;20192;-64
2023/08/02 01:04:29;;;;;;;13.27;7.32;;;;;;;19.51;100.00;98209.38;5138921;28;20042;-65
2023/08/02 01:07:03;;;;;;;9.02;6.80;;;;;;;19.48;100.00;98209.50;5139226;27;20051;-66
2023/08/02 01:09:36;;;;;;;10.23;9.25;;;;;;;19.52;100.00;98201.81;5139010;28;20134;-66
2023/08/02 01:12:06;;;;;;;13.40;7.53;;;;;;;19.52;100.00;98199.81;5138692;28;20189;-61
2023/08/02 01:14:36;;;;;;;12.23;7.18;;;;;;;19.47;100.00;98194.06;5138718;28;20043;-61
2023/08/02 01:17:03;;;;;;;7.78;6.78;;;;;;;19.26;100.00;98190.75;5138568;28;20138;-62
2023/08/02 01:19:31;;;;;;;11.98;7.63;;;;;;;19.37;100.00;98182.06;5138853;28;20146;-62
2023/08/02 01:21:57;;;;;;;11.07;7.03;;;;;;;19.27;100.00;98192.31;5138559;28;20066;-66
2023/08/02 01:24:29;;;;;;;13.88;7.35;;;;;;;19.48;100.00;98184.47;5138906;28;20043;-63
2023/08/02 01:26:56;;;;;;;7.63;6.22;;;;;;;19.47;100.00;98194.06;5138530;28;20119;-62
2023/08/02 01:29:24;;;;;;;11.73;8.00;;;;;;;19.54;100.00;98185.47;5138906;28;20142;-64
2023/08/02 01:31:52;;;;;;;9.13;8.30;;;;;;;19.39;100.00;98189.94;5138251;28;20061;-66
2023/08/02 01:34:19;;;;;;;9.13;7.13;;;;;;;19.49;100.00;98188.81;5138266;28;20488;-65
2023/08/02 01:36:45;;;;;;;11.65;7.20;;;;;;;19.47;100.00;98182.94;5138524;27;20146;-64
2023/08/02 01:39:12;;;;;;;8.60;6.95;;;;;;;19.48;100.00;98198.38;5138003;27;20055;-62
2023/08/02 01:41:37;;;;;;;8.68;6.53;;;;;;;19.28;100.00;98193.84;5138560;28;20100;-61
2023/08/02 01:44:04;;;;;;;7.97;6.65;;;;;;;19.33;100.00;98192.53;5138352;28;20130;-62
2023/08/02 01:46:30;;;;;;;7.63;6.43;;;;;;;19.45;100.00;98180.59;5138331;28;20047;-66
2023/08/02 01:48:55;;;;;;;8.38;6.43;;;;;;;19.34;100.00;98191.28;5138085;28;20058;-63
2023/08/02 01:51:21;;;;;;;8.85;6.30;;;;;;;19.44;100.00;98192.16;5138342;28;20078;-62
2023/08/02 01:53:49;;;;;;;7.30;6.60;;;;;;;19.63;100.00;98201.47;5138060;28;20083;-63
2023/08/02 01:56:15;;;;;;;10.90;8.80;;;;;;;19.72;100.00;98207.13;5138382;28;20138;-63
2023/08/02 01:58:41;;;;;;;7.55;6.70;;;;;;;19.53;100.00;98220.06;5137841;28;20047;-65
2023/08/02 02:01:07;;;;;;;6.78;5.63;;;;;;;19.35;100.00;98237.31;5138327;28;20146;-65
2023/08/02 02:03:33;;;;;;;8.18;5.88;;;;;;;19.07;100.00;98211.22;5138127;28;20058;-64
2023/08/02 02:05:59;;;;;;;8.85;8.10;;;;;;;19.39;100.00;98203.84;5137753;28;20392;-63
2023/08/02 02:08:25;;;;;;;11.70;6.53;;;;;;;19.13;100.00;98203.91;5138032;27;20134;-64
2023/08/02 02:10:52;;;;;;;9.82;8.63;;;;;;;19.09;100.00;98186.53;5137904;28;20046;-66
2023/08/02 02:13:20;;;;;;;9.10;7.10;;;;;;;19.36;100.00;98188.06;5137973;28;20043;-63
2023/08/02 02:15:46;;;;;;;11.52;7.15;;;;;;;19.22;100.00;98190.09;5137916;28;20059;-61
2023/08/02 02:18:12;;;;;;;24.58;7.93;;;;;;;19.16;100.00;98166.88;5138033;28;20057;-64
2023/08/02 02:20:37;;;;;;;10.05;7.65;;;;;;;18.96;100.00;98141.34;5137612;28;20047;-67
2023/08/02 02:23:03;;;;;;;13.73;10.70;;;;;;;18.77;100.00;98107.81;5138047;28;20133;-68
2023/08/02 02:25:29;;;;;;;11.10;9.30;;;;;;;18.80;100.00;98083.94;5137633;28;20051;-67
2023/08/02 02:27:55;;;;;;;15.00;8.65;;;;;;;18.64;100.00;98070.94;5138018;28;20080;-66
2023/08/02 02:30:22;;;;;;;12.25;8.38;;;;;;;18.86;100.00;98059.97;5137465;28;20357;-64
2023/08/02 02:32:48;;;;;;;11.07;8.15;;;;;;;18.73;100.00;98059.97;5137643;28;20047;-66
2023/08/02 02:35:14;;;;;;;10.45;8.75;;;;;;;18.73;100.00;98065.53;5137512;28;20062;-68
2023/08/02 02:37:41;;;;;;;13.20;8.23;;;;;;;18.50;100.00;98063.84;5137588;27;20104;-62
2023/08/02 02:40:09;;;;;;;9.85;8.43;;;;;;;18.75;100.00;98048.41;5137390;28;20061;-63
2023/08/02 02:42:35;;;;;;;11.38;7.32;;;;;;;18.88;100.00;98059.50;5137347;28;20051;-63
2023/08/02 02:45:01;;;;;;;10.07;8.73;;;;;;;18.88;100.00;98073.38;5137733;28;20136;-67
2023/08/02 02:47:27;;;;;;;11.60;8.23;;;;;;;18.94;100.00;98091.03;5137386;28;20099;-68
2023/08/02 02:49:53;;;;;;;10.98;8.68;;;;;;;18.87;100.00;98091.28;5137721;28;20054;-67
2023/08/02 02:52:19;;;;;;;9.95;8.88;;;;;;;18.96;100.00;98099.69;5136399;27;20058;-68
2023/08/02 02:54:45;;;;;;;10.50;8.13;;;;;;;19.07;100.00;98097.34;5139465;28;20047;-66
2023/08/02 02:57:10;;;;;;;12.27;9.18;;;;;;;19.13;100.00;98111.44;5139602;28;20078;-67
2023/08/02 02:59:36;;;;;;;14.02;9.07;;;;;;;19.09;100.00;98111.53;5138841;28;20420;-67
2023/08/02 03:02:03;;;;;;;13.80;12.35;;;;;;;19.19;100.00;98090.19;5138846;28;20047;-65
2023/08/02 03:04:29;;;;;;;13.52;9.68;;;;;;;19.07;100.00;98102.91;5139148;28;20134;-62
2023/08/02 03:06:55;;;;;;;11.00;9.02;;;;;;;19.18;100.00;98091.41;5138596;27;20043;-63
2023/08/02 03:09:21;;;;;;;11.02;8.85;;;;;;;19.28;100.00;98087.50;5137032;28;20058;-63
2023/08/02 03:11:47;;;;;;;14.02;12.63;;;;;;;19.30;100.00;98095.41;5137111;28;20066;-66
2023/08/02 03:14:13;;;;;;;12.30;8.68;;;;;;;19.31;100.00;98108.81;5136976;28;20090;-65
2023/08/02 03:16:42;;;;;;;13.63;12.32;;;;;;;19.33;100.00;98114.72;5137311;28;20043;-68
2023/08/02 03:19:09;;;;;;;16.10;9.30;;;;;;;19.39;100.00;98110.16;5136749;28;20058;-63
2023/08/02 03:21:35;;;;;;;12.85;8.88;;;;;;;19.43;100.00;98113.56;5137140;28;20047;-67
2023/08/02 03:24:01;;;;;;;12.43;8.88;;;;;;;19.46;100.00;98117.44;5136862;28;20103;-68
2023/08/02 03:26:27;;;;;;;12.45;9.02;;;;;;;19.51;100.00;98122.44;5137186;28;20055;-68
2023/08/02 03:28:53;;;;;;;12.13;9.02;;;;;;;19.43;100.00;98124.69;5136630;28;20047;-64
2023/08/02 03:31:19;;;;;;;16.98;15.65;;;;;;;19.38;100.00;98118.91;5136624;28;20373;-63
2023/08/02 03:33:45;;;;;;;11.88;9.32;;;;;;;19.38;100.00;98119.69;5136968;28;20066;-64
2023/08/02 03:36:11;;;;;;;12.80;8.73;;;;;;;19.37;100.00;98109.81;5136730;27;20184;-66
2023/08/02 03:38:37;;;;;;;11.25;9.32;;;;;;;19.34;100.00;98107.94;5136402;28;20117;-68
2023/08/02 03:41:04;;;;;;;11.45;8.77;;;;;;;19.40;100.00;98110.91;5136697;28;20051;-69
2023/08/02 03:43:29;;;;;;;10.15;8.93;;;;;;;19.48;100.00;98112.97;5136907;28;20057;-64
2023/08/02 03:45:55;;;;;;;15.13;13.82;;;;;;;19.44;100.00;98111.56;5136624;28;20070;-63
2023/08/02 03:48:21;;;;;;;13.82;10.10;;;;;;;19.43;100.00;98108.03;5136805;28;20062;-63
2023/08/02 03:50:48;;;;;;;12.35;9.50;;;;;;;19.44;100.00;98101.22;5136357;28;20095;-64
2023/08/02 03:53:14;;;;;;;11.98;9.57;;;;;;;19.47;100.00;98105.09;5136911;28;20057;-64
2023/08/02 03:55:40;;;;;;;15.85;9.43;;;;;;;19.43;100.00;98108.03;5136351;28;20335;-66
2023/08/02 03:58:06;;;;;;;14.25;9.50;;;;;;;19.44;100.00;98108.78;5136784;28;20293;-65
2023/08/02 04:00:32;;;;;;;12.73;10.05;;;;;;;19.48;100.00;98109.44;5136549;28;20190;-66
2023/08/02 04:02:59;;;;;;;16.13;14.63;;;;;;;19.50;100.00;98110.53;5137881;27;20058;-67
2023/08/02 04:05:25;;;;;;;12.23;9.23;;;;;;;19.51;100.00;98111.31;5140055;28;20058;-64
2023/08/02 04:07:51;;;;;;;14.40;13.10;;;;;;;19.51;100.00;98122.44;5139635;27;20514;-65
2023/08/02 04:10:17;;;;;;;10.77;9.32;;;;;;;19.48;100.00;98126.13;5140011;28;20087;-70
2023/08/02 04:12:44;;;;;;;10.07;7.88;;;;;;;19.41;100.00;98143.03;5139822;28;20050;-69
2023/08/02 04:15:10;;;;;;;10.80;8.40;;;;;;;19.52;100.00;98137.88;5140040;28;20043;-66
2023/08/02 04:17:36;;;;;;;11.27;9.02;;;;;;;19.64;100.00;98142.66;5139668;28;20055;-66
2023/08/02 04:20:03;;;;;;;10.68;8.65;;;;;;;19.61;100.00;98149.09;5139926;28;20093;-68
2023/08/02 04:22:29;;;;;;;9.45;8.13;;;;;;;19.36;100.00;98161.06;5139545;28;20051;-63
2023/08/02 04:24:55;;;;;;;16.77;9.50;;;;;;;19.56;100.00;98143.31;5139953;28;20043;-63
2023/08/02 04:27:21;;;;;;;14.10;12.80;;;;;;;19.46;100.00;98150.78;5139325;28;20050;-64
2023/08/02 04:29:49;;;;;;;11.98;9.32;;;;;;;19.52;100.00;98144.22;5139606;28;20094;-65
2023/08/02 04:32:14;;;;;;;12.18;9.73;;;;;;;19.43;100.00;98155.25;5139683;28;20047;-68
2023/08/02 04:34:40;;;;;;;10.50;9.02;;;;;;;19.57;100.00;98151.22;5139216;28;20112;-69
2023/08/02 04:37:06;;;;;;;10.27;8.70;;;;;;;19.51;100.00;98156.56;5139498;27;20055;-68
2023/08/02 04:39:32;;;;;;;10.77;8.68;;;;;;;19.57;100.00;98154.00;5139309;28;20138;-68
2023/08/02 04:42:00;;;;;;;13.98;9.32;;;;;;;19.85;100.00;98152.22;5139418;28;20404;-66
2023/08/02 04:44:26;;;;;;;14.35;10.73;;;;;;;19.81;100.00;98173.84;5139155;28;20550;-66
2023/08/02 04:46:52;;;;;;;12.05;10.00;;;;;;;19.85;100.00;98168.16;5139389;28;20072;-66
2023/08/02 04:49:18;;;;;;;10.80;9.45;;;;;;;19.97;100.00;98181.22;5139181;28;20133;-66
2023/08/02 04:51:44;;;;;;;12.85;9.20;;;;;;;20.14;100.00;98190.16;5139476;28;20051;-66
2023/08/02 04:54:10;;;;;;;15.50;9.65;;;;;;;20.13;100.00;98199.75;5138970;28;20163;-68
2023/08/02 04:56:37;;;;;;;12.05;9.48;;;;;;;20.01;100.00;98195.78;5139296;28;20065;-67
2023/08/02 04:59:03;;;;;;;15.15;9.57;;;;;;;20.04;100.00;98205.22;5139032;28;20047;-68
2023/08/02 05:01:29;;;;;;;15.18;10.20;;;;;;;20.07;100.00;98199.53;5138945;28;20077;-68
2023/08/02 05:03:56;;;;;;;12.10;10.88;;;;;;;19.99;100.00;98206.56;5139088;28;20051;-68
2023/08/02 05:06:22;;;;;;;15.13;10.95;;;;;;;20.08;100.00;98203.88;5138837;27;20115;-69
2023/08/02 05:08:48;;;;;;;12.20;10.50;;;;;;;20.03;100.00;98214.81;5138891;28;20086;-68
2023/08/02 05:11:14;;;;;;;15.55;13.38;;;;;;;20.05;100.00;98223.47;5138504;28;20317;-65
2023/08/02 05:13:39;;;;;;;14.88;10.35;;;;;;;20.15;100.00;98222.31;5138565;27;20093;-70
2023/08/02 05:16:12;;;;;;;16.23;14.73;;;;;;;20.09;100.00;98230.47;5138027;28;20051;-64
2023/08/02 05:18:37;;;;;;;13.93;10.20;;;;;;;20.32;100.00;98226.44;5138674;28;20047;-68
2023/08/02 05:21:10;;;;;;;12.77;10.43;;;;;;;20.43;100.00;98232.41;5138346;28;20408;-66
2023/08/02 05:23:36;;;;;;;13.77;10.00;;;;;;;20.62;100.00;98254.81;5138922;28;20078;-65
2023/08/02 05:26:03;;;;;;;10.60;9.13;;;;;;;20.54;100.00;98262.69;5138691;28;20101;-66
2023/08/02 05:28:29;;;;;;;14.23;9.52;;;;;;;20.64;100.00;98274.66;5138532;28;20152;-63
2023/08/02 05:30:55;;;;;;;12.55;9.30;;;;;;;20.63;100.00;98293.38;5138296;28;20059;-66
2023/08/02 05:33:21;;;;;;;11.88;9.25;;;;;;;20.47;100.00;98301.88;5138416;28;20047;-66
2023/08/02 05:35:47;;;;;;;13.15;9.93;;;;;;;20.43;100.00;98296.44;5138439;28;20468;-66
2023/08/02 05:38:14;;;;;;;12.20;10.05;;;;;;;20.35;100.00;98294.34;5138362;27;20134;-67
2023/08/02 05:40:40;;;;;;;13.63;9.95;;;;;;;20.19;100.00;98296.09;5138360;28;20051;-69
2023/08/02 05:43:06;;;;;;;15.13;10.40;;;;;;;20.40;100.00;98277.09;5138163;28;20120;-67
2023/08/02 05:45:32;;;;;;;14.52;13.02;;;;;;;20.62;100.00;98283.44;5138386;28;20054;-66
2023/08/02 05:47:58;;;;;;;13.20;9.10;;;;;;;20.44;100.00;98298.00;5137996;28;20058;-68
2023/08/02 05:50:24;;;;;;;10.73;9.02;;;;;;;20.28;100.00;98314.88;5138505;28;20387;-60
2023/08/02 05:52:50;;;;;;;11.20;10.05;;;;;;;20.62;100.00;98300.16;5138021;28;20069;-64
2023/08/02 05:55:17;;;;;;;11.18;8.68;;;;;;;20.74;100.00;98331.19;5138446;28;20108;-65
2023/08/02 05:57:43;;;;;;;12.27;10.30;;;;;;;20.88;100.00;98328.63;5137873;28;20435;-69
2023/08/02 06:00:10;;;;;;;12.80;10.13;;;;;;;20.95;100.00;98330.38;5137758;28;20409;-65
2023/08/02 06:02:37;;;;;;;12.02;10.50;;;;;;;20.79;100.00;98356.47;5138104;28;20383;-71
2023/08/02 06:05:03;;;;;;;22.45;10.13;;;;;;;20.87;100.00;98370.91;5138032;28;20196;-64
2023/08/02 06:07:29;;;;;;;14.32;10.30;;;;;;;21.07;100.00;98374.13;5137833;27;20047;-67
2023/08/02 06:09:55;;;;;;;12.75;9.60;;;;;;;20.99;100.00;98395.09;5137630;28;20435;-64
2023/08/02 06:12:22;;;;;;;14.55;10.45;;;;;;;21.18;100.00;98407.16;5138135;28;20138;-64
2023/08/02 06:14:48;;;;;;;19.30;10.52;;;;;;;21.42;100.00;98420.66;5137593;28;20053;-67
2023/08/02 06:17:14;;;;;;;20.77;10.60;;;;;;;21.34;100.00;98457.16;5138103;28;20104;-64
2023/08/02 06:19:39;;;;;;;25.52;12.88;;;;;;;21.45;100.00;98459.53;5137431;28;20332;-63
2023/08/02 06:22:05;;;;;;;21.27;12.52;;;;;;;21.32;100.00;98473.53;5137821;28;20200;-61
2023/08/02 06:24:31;;;;;;;25.75;11.77;;;;;;;21.46;100.00;98468.69;5137147;28;20047;-61
2023/08/02 06:26:57;;;;;;;20.52;11.20;;;;;;;21.36;100.00;98477.00;5136347;27;20053;-63
2023/08/02 06:29:24;;;;;;;17.60;9.75;;;;;;;21.21;100.00;98475.94;5137468;28;20051;-66
2023/08/02 06:31:50;;;;;;;15.20;9.35;;;;;;;21.27;100.00;98487.28;5137335;28;20094;-65
2023/08/02 06:34:16;;;;;;;12.70;7.60;;;;;;;20.80;100.00;98513.22;5137331;28;20050;-67
2023/08/02 06:36:42;;;;;;;13.68;7.68;;;;;;;20.73;100.00;98521.81;5137513;27;20043;-66
2023/08/02 06:39:08;;;;;;;15.77;7.57;;;;;;;20.44;100.00;98526.28;5137254;28;20051;-65
2023/08/02 06:41:33;;;;;;;14.50;8.45;;;;;;;20.74;100.00;98515.78;5137327;28;20082;-61
2023/08/02 06:43:59;;;;;;;12.82;9.35;;;;;;;21.03;100.00;98521.16;5137436;28;20495;-64
2023/08/02 06:46:26;;;;;;;11.43;8.10;;;;;;;20.44;100.00;98525.50;5137155;28;20130;-62
2023/08/02 06:48:52;;;;;;;10.65;6.65;;;;;;;20.57;100.00;98540.22;5137740;28;20150;-63
2023/08/02 06:51:18;;;;;;;12.38;8.15;;;;;;;20.77;100.00;98514.13;5136980;28;20138;-63
2023/08/02 06:53:44;;;;;;;10.80;7.65;;;;;;;20.72;100.00;98484.03;5137409;28;20104;-67
2023/08/02 06:56:11;;;;;;;7.40;6.68;;;;;;;20.65;100.00;98483.03;5137166;28;20131;-67
2023/08/02 06:58:37;;;;;;;11.05;7.55;;;;;;;20.72;100.00;98490.38;5136983;28;20138;-63
2023/08/02 07:01:11;;;;;;;9.02;6.75;;;;;;;20.66;100.00;98481.06;5136983;28;20367;-66
2023/08/02 07:03:37;;;;;;;;;;;;;;;20.57;100.00;98469.84;5137378;28;20055;-64
2023/08/02 07:06:08;;;;;;;9.55;5.70;;;;;;;20.44;100.00;98475.41;5137215;28;19934;-64
2023/08/02 07:08:33;;;;;;;6.30;5.68;;;;;;;20.43;100.00;98479.41;5136954;28;20047;-63
2023/08/02 07:10:59;;;;;;;8.10;5.30;;;;;;;20.53;100.00;98472.75;5137143;28;20142;-67
2023/08/02 07:13:25;;;;;;;9.15;6.00;;;;;;;20.73;100.00;98460.56;5136854;28;20078;-67
2023/08/02 07:15:51;;;;;;;7.35;4.82;;;;;;;20.85;100.00;98466.06;5137201;28;20086;-67
2023/08/02 07:18:17;;;;;;;7.88;5.07;;;;;;;21.27;100.00;98468.56;5136643;28;20139;-64
2023/08/02 07:20:44;;;;;;;8.77;5.05;;;;;;;21.76;100.00;98481.91;5137009;28;20062;-65
2023/08/02 07:23:10;;;;;;;8.05;5.03;;;;;;;21.95;100.00;98479.19;5136705;28;20055;-67
2023/08/02 07:25:35;;;;;;;11.07;4.65;;;;;;;22.17;100.00;98445.66;5136648;28;20051;-64
2023/08/02 07:28:01;;;;;;;7.20;4.25;;;;;;;22.04;100.00;98387.13;5136801;28;20051;-61
2023/08/02 07:30:27;;;;;;;6.32;4.57;;;;;;;21.81;100.00;98339.00;5136571;28;20137;-59
2023/08/02 07:32:53;;;;;;;11.27;5.57;;;;;;;21.82;100.00;97767.88;5136865;28;20460;-59
2023/08/02 07:35:19;;;;;;;11.27;5.18;;;;;;;21.82;100.00;97776.22;5136519;28;20187;-60
2023/08/02 07:37:46;;;;;;;8.48;3.92;;;;;;;21.74;100.00;98090.25;5138141;27;20134;-64
2023/08/02 07:40:13;;;;;;;4.78;4.03;;;;;;;21.48;100.00;98284.97;5139923;28;20051;-61
2023/08/02 07:42:39;;;;;;;7.22;5.15;;;;;;;21.56;100.00;98408.97;5140501;28;20083;-67
2023/08/02 07:45:07;;;;;;;4.22;3.60;;;;;;;21.29;100.00;98364.94;5139968;28;20055;-65
2023/08/02 07:47:33;;;;;;;7.72;4.50;;;;;;;21.20;100.00;98396.34;5140457;28;20132;-66
2023/08/02 07:49:59;;;;;;;4.95;3.45;;;;;;;20.98;100.00;98385.19;5139878;28;20078;-62
2023/08/02 07:52:25;;;;;;;7.70;4.63;;;;;;;21.14;100.00;98417.66;5140100;28;20058;-61
2023/08/02 07:54:53;;;;;;;5.10;4.60;;;;;;;21.06;100.00;98433.88;5140024;28;20499;-66
2023/08/02 07:57:19;;;;;;;5.18;4.03;;;;;;;20.83;100.00;98395.31;5139892;28;20058;-62
2023/08/02 07:59:45;;;;;;;3.30;3.00;;;;;;;20.74;100.00;98426.66;5140130;28;20320;-62
2023/08/02 08:02:11;;;;;;;4.13;3.08;;;;;;;20.79;100.00;98408.59;5139855;28;20047;-63
2023/08/02 08:04:36;;;;;;;3.92;3.35;;;;;;;20.95;100.00;98424.34;5140136;28;20294;-67
2023/08/02 08:07:03;;;;;;;6.32;4.13;;;;;;;21.49;100.00;98435.13;5139513;27;20051;-66
2023/08/02 08:09:28;;;;;;;3.47;2.90;;;;;;;21.47;100.00;98298.16;5140094;28;20138;-61
2023/08/02 08:11:55;;;;;;;5.90;3.20;;;;;;;21.47;100.00;98273.06;5139414;28;20397;-62
2023/08/02 08:14:21;;;;;;;8.15;3.88;;;;;;;21.57;100.00;98351.94;5139770;28;20138;-62
2023/08/02 08:16:47;;;;;;;4.25;3.38;;;;;;;21.47;100.00;98314.88;5139463;28;20093;-62
2023/08/02 08:19:14;;;;;;;6.50;3.45;;;;;;;21.28;100.00;98346.66;5139772;28;20078;-65
2023/08/02 08:21:40;;;;;;;6.57;3.75;;;;;;;21.09;100.00;98430.19;5139608;28;20082;-64
2023/08/02 08:24:06;;;;;;;6.03;3.00;;;;;;;20.97;100.00;98450.53;5139339;28;20138;-62
2023/08/02 08:26:32;;;;;;;3.63;3.33;;;;;;;20.66;100.00;98419.78;5139718;28;20058;-64
2023/08/02 08:28:59;;;;;;;4.53;3.67;;;;;;;20.70;100.00;98455.88;5139549;28;20051;-61
2023/08/02 08:31:27;;;;;;;6.15;3.88;;;;;;;20.55;100.00;98461.91;5140015;28;20134;-64
2023/08/02 08:33:53;;;;;;;16.17;6.97;;;;;;;20.36;100.00;98505.47;5139746;28;20055;-65
2023/08/02 08:36:20;;;;;;;5.47;4.00;;;;;;;20.40;100.00;98508.91;5140082;27;20489;-60
2023/08/02 08:38:46;;;;;;;4.82;3.80;;;;;;;20.22;100.00;98506.69;5139247;28;20459;-60
2023/08/02 08:41:14;;;;;;;10.43;4.28;;;;;;;19.58;100.00;98513.41;5139677;28;20055;-63
2023/08/02 08:43:40;;;;;;;11.48;4.47;;;;;;;19.81;100.00;98499.22;5139164;28;20112;-64
2023/08/02 08:46:07;;;;;;;9.40;4.47;;;;;;;19.68;100.00;98479.75;5139372;28;20051;-62
2023/08/02 08:48:35;;;;;;;9.93;6.95;;;;;;;19.70;100.00;98476.53;5138408;27;20051;-60
2023/08/02 08:51:02;;;;;;;6.82;5.20;;;;;;;19.37;100.00;98467.56;5138357;28;20390;-64
2023/08/02 08:53:32;;;;;;;10.35;4.57;;;;;;;19.49;100.00;98411.19;5139118;28;20143;-60
2023/08/02 08:55:59;;;;;;;9.88;4.60;;;;;;;19.23;100.00;98402.06;5139011;28;20137;-62
2023/08/02 08:58:26;;;;;;;6.30;4.43;;;;;;;19.28;100.00;98385.59;5139237;28;20134;-60
2023/08/02 09:00:54;;;;;;;10.90;4.47;;;;;;;19.18;100.00;98386.69;5138788;28;20138;-62
2023/08/02 09:03:21;;;;;;;7.28;6.07;;;;;;;19.25;100.00;98380.91;5139125;28;20146;-63
2023/08/02 09:05:48;;;;;;;4.95;4.18;;;;;;;19.28;100.00;98382.81;5138666;28;20358;-60
2023/08/02 09:08:14;;;;;;;5.30;4.05;;;;;;;19.07;100.00;98382.69;5139098;27;20074;-63
2023/08/02 09:10:40;;;;;;;8.85;6.80;;;;;;;19.07;100.00;98389.00;5138648;28;20309;-64
2023/08/02 09:13:06;;;;;;;11.65;5.15;;;;;;;19.05;100.00;98370.00;5139059;28;20142;-66
2023/08/02 09:15:32;;;;;;;8.40;5.10;;;;;;;18.89;100.00;98358.19;5138462;28;20181;-70
2023/08/02 09:17:58;;;;;;;9.95;8.25;;;;;;;18.95;100.00;98337.75;5138422;28;20142;-70
2023/08/02 09:20:26;;;;;;;14.93;5.25;;;;;;;18.79;100.00;98335.84;5138988;28;20055;-71
2023/08/02 09:22:53;;;;;;;11.10;6.80;;;;;;;18.93;100.00;98333.88;5138771;28;20051;-70
2023/08/02 09:25:21;;;;;;;8.25;4.78;;;;;;;18.95;100.00;98339.75;5138918;28;20191;-66
2023/08/02 09:27:48;;;;;;;7.28;5.40;;;;;;;19.13;100.00;98395.59;5138589;28;20051;-64
2023/08/02 09:30:23;;;;;;;11.52;5.22;;;;;;;19.12;100.00;98374.56;5138613;28;20318;-66
2023/08/02 09:32:58;;;;;;;15.80;5.00;;;;;;;18.92;100.00;98376.75;5138197;28;20047;-65
2023/08/02 09:35:25;;;;;;;12.05;6.53;;;;;;;18.96;100.00;98344.09;5138794;28;20325;-66
2023/08/02 09:37:51;;;;;;;9.05;5.57;;;;;;;18.86;100.00;98311.84;5137956;27;20107;-66
2023/08/02 09:40:17;;;;;;;18.10;5.72;;;;;;;18.75;100.00;98301.06;5138501;28;20133;-64
2023/08/02 09:42:43;;;;;;;10.32;5.40;;;;;;;18.55;100.00;98282.53;5137917;28;20509;-70
2023/08/02 09:45:10;;;;;;;24.67;9.57;;;;;;;18.33;100.00;98251.88;5138187;28;20142;-68
2023/08/02 09:47:36;;;;;;;9.38;5.65;;;;;;;18.34;100.00;98222.88;5138313;28;20062;-62
2023/08/02 09:50:04;;;;;;;15.48;7.13;;;;;;;18.32;100.00;98202.34;5137958;28;20302;-61
2023/08/02 09:52:31;;;;;;;10.32;4.68;;;;;;;17.99;100.00;98183.03;5137538;28;20061;-67
2023/08/02 09:54:58;;;;;;;13.77;8.68;;;;;;;18.22;100.00;98192.34;5137749;28;20053;-63
2023/08/02 09:57:27;;;;;;;16.02;5.32;;;;;;;18.13;100.00;98193.00;5138021;28;20051;-67
2023/08/02 09:59:54;;;;;;;12.07;5.30;;;;;;;17.92;100.00;98180.47;5137667;27;20158;-72
2023/08/02 10:02:24;;;;;;;30.48;5.68;;;;;;;17.93;100.00;98150.78;5138054;28;20043;-62
2023/08/02 10:04:54;;;;;;;12.50;5.53;;;;;;;17.93;100.00;98153.56;5137444;28;20047;-64
2023/08/02 10:07:21;;;;;;;5.22;3.97;;;;;;;17.99;100.00;98137.91;5137991;27;20057;-66
2023/08/02 10:09:52;;;;;;;14.15;6.35;;;;;;;18.28;100.00;98135.88;5137508;28;20065;-63
2023/08/02 10:12:19;;;;;;;12.88;6.40;;;;;;;18.48;100.00;98141.22;5137731;28;20062;-58
2023/08/02 10:14:47;;;;;;;11.52;6.95;;;;;;;18.59;100.00;98146.44;5137792;28;20074;-72
2023/08/02 10:17:14;;;;;;;11.43;9.38;;;;;;;18.54;100.00;98155.31;5137605;28;20054;-65
2023/08/02 10:19:41;;;;;;;7.38;5.10;;;;;;;18.60;100.00;98161.88;5137637;28;20061;-63
2023/08/02 10:22:07;;;;;;;5.55;4.10;;;;;;;18.28;100.00;98160.84;5137292;28;20499;-63
2023/08/02 10:24:33;;;;;;;5.60;4.00;;;;;;;18.13;100.00;98159.72;5137605;28;20503;-58
2023/08/02 10:27:03;;;;;;;9.50;5.82;;;;;;;18.32;100.00;98157.94;5137244;28;20047;-58
2023/08/02 10:29:32;;;;;;;6.72;4.40;;;;;;;18.16;100.00;98167.16;5136662;28;20083;-58
2023/08/02 10:31:58;;;;;;;14.40;6.53;;;;;;;18.47;100.00;98158.31;5137050;28;20439;-66
2023/08/02 10:34:46;;;;;;;7.53;6.63;;;;;;;18.51;100.00;98167.31;5137085;28;20093;-65
2023/08/02 10:37:12;;;;;;;6.82;4.82;;;;;;;18.38;100.00;98177.63;5137118;27;20058;-62
2023/08/02 10:39:54;;;;;;;13.63;7.78;;;;;;;18.47;100.00;98161.88;5137050;28;20086;-57
2023/08/02 10:42:23;;;;;;;7.65;4.30;;;;;;;18.24;100.00;98162.16;5137405;28;20074;-58
2023/08/02 10:45:11;;;;;;;10.32;5.18;;;;;;;18.51;100.00;98161.75;5137060;28;20062;-64
2023/08/02 10:47:38;;;;;;;5.30;3.63;;;;;;;18.65;100.00;98163.31;5137458;28;20051;-60
2023/08/02 10:50:05;;;;;;;8.65;4.60;;;;;;;18.79;100.00;98171.22;5136896;28;20390;-68
2023/08/02 10:52:32;;;;;;;9.27;6.40;;;;;;;18.94;100.00;98169.56;5136812;28;20079;-64
2023/08/02 10:55:20;;;;;;;6.60;4.45;;;;;;;19.09;100.00;98174.66;5136857;28;20062;-62
2023/08/02 10:58:06;;;;;;;6.80;4.32;;;;;;;19.28;100.00;98188.31;5136831;28;20051;-65
2023/08/02 11:00:34;;;;;;;6.25;4.93;;;;;;;19.37;100.00;98203.53;5137039;28;20050;-64
2023/08/02 11:03:00;;;;;;;5.45;4.00;;;;;;;19.71;100.00;98208.34;5136713;28;20154;-68
2023/08/02 11:05:43;;;;;;;7.25;4.50;;;;;;;19.70;100.00;98240.94;5137084;28;20059;-59
2023/08/02 11:08:09;;;;;;;5.57;4.53;;;;;;;19.62;100.00;98255.50;5136382;27;20051;-65
2023/08/02 11:10:49;;;;;;;7.28;4.75;;;;;;;19.16;100.00;98252.22;5137559;28;20062;-70
2023/08/02 11:13:15;;;;;;;4.25;3.70;;;;;;;19.17;100.00;98243.44;5141342;27;20051;-70
2023/08/02 11:15:41;;;;;;;5.00;4.28;;;;;;;19.31;100.00;98256.09;5142152;28;20074;-67
2023/08/02 11:18:08;;;;;;;7.05;3.58;;;;;;;19.07;100.00;98264.00;5140932;28;20050;-68